sensor_id;sensor_type;location;lat;lon;timestamp;P1;durP1;ratioP1;P2;durP2;ratioP2
17618;SDS011;8928;51.678;6.074;2023-01-19T00:01:08;32.20;;;15.17;;
17618;SDS011;8928;51.678;6.074;2023-01-19T00:03:55;28.70;;;14.90;;
17618;SDS011;8928;51.678;6.074;2023-01-19T00:06:44;31.87;;;14.90;;
17618;SDS011;8928;51.678;6.074;2023-01-19T00:09:31;31.07;;;15.37;;
17618;SDS011;8928;51.678;6.074;2023-01-19T00:12:18;31.17;;;15.30;;
17618;SDS011;8928;51.678;6.074;2023-01-19T00:15:05;27.90;;;14.60;;
17618;SDS011;8928;51.678;6.074;2023-01-19T00:17:53;34.00;;;15.37;;
17618;SDS011;8928;51.678;6.074;2023-01-19T00:20:40;34.13;;;15.40;;
17618;SDS011;8928;51.678;6.074;2023-01-19T00:23:29;32.00;;;15.13;;
17618;SDS011;8928;51.678;6.074;2023-01-19T00:26:16;32.53;;;15.47;;
17618;SDS011;8928;51.678;6.074;2023-01-19T00:29:03;31.50;;;14.97;;
17618;SDS011;8928;51.678;6.074;2023-01-19T00:31:52;30.07;;;15.03;;
17618;SDS011;8928;51.678;6.074;2023-01-19T00:34:39;30.13;;;15.23;;
17618;SDS011;8928;51.678;6.074;2023-01-19T00:37:26;30.13;;;14.70;;
17618;SDS011;8928;51.678;6.074;2023-01-19T00:40:15;31.67;;;15.23;;
17618;SDS011;8928;51.678;6.074;2023-01-19T00:43:03;33.60;;;15.00;;
17618;SDS011;8928;51.678;6.074;2023-01-19T00:45:50;27.20;;;14.77;;
17618;SDS011;8928;51.678;6.074;2023-01-19T00:48:37;27.03;;;13.50;;
17618;SDS011;8928;51.678;6.074;2023-01-19T00:51:24;29.93;;;14.23;;
17618;SDS011;8928;51.678;6.074;2023-01-19T00:54:11;32.27;;;15.17;;
17618;SDS011;8928;51.678;6.074;2023-01-19T00:57:00;28.77;;;14.43;;
17618;SDS011;8928;51.678;6.074;2023-01-19T00:59:47;28.10;;;14.93;;
17618;SDS011;8928;51.678;6.074;2023-01-19T01:02:34;33.00;;;14.53;;
17618;SDS011;8928;51.678;6.074;2023-01-19T01:05:22;31.83;;;14.57;;
17618;SDS011;8928;51.678;6.074;2023-01-19T01:08:09;28.30;;;15.13;;
17618;SDS011;8928;51.678;6.074;2023-01-19T01:10:56;30.17;;;14.93;;
17618;SDS011;8928;51.678;6.074;2023-01-19T01:13:44;36.83;;;14.60;;
17618;SDS011;8928;51.678;6.074;2023-01-19T01:16:31;35.23;;;15.87;;
17618;SDS011;8928;51.678;6.074;2023-01-19T01:19:18;35.50;;;15.00;;
17618;SDS011;8928;51.678;6.074;2023-01-19T01:22:05;35.03;;;15.00;;
17618;SDS011;8928;51.678;6.074;2023-01-19T01:24:53;32.23;;;15.33;;
17618;SDS011;8928;51.678;6.074;2023-01-19T01:27:40;32.27;;;15.47;;
17618;SDS011;8928;51.678;6.074;2023-01-19T01:30:28;32.13;;;15.70;;
17618;SDS011;8928;51.678;6.074;2023-01-19T01:33:15;33.47;;;15.43;;
17618;SDS011;8928;51.678;6.074;2023-01-19T01:36:03;34.87;;;16.00;;
17618;SDS011;8928;51.678;6.074;2023-01-19T01:38:50;33.07;;;15.70;;
17618;SDS011;8928;51.678;6.074;2023-01-19T01:41:37;31.67;;;15.10;;
17618;SDS011;8928;51.678;6.074;2023-01-19T01:44:43;33.67;;;15.33;;
17618;SDS011;8928;51.678;6.074;2023-01-19T01:47:37;31.33;;;14.77;;
17618;SDS011;8928;51.678;6.074;2023-01-19T01:50:28;33.00;;;14.87;;
17618;SDS011;8928;51.678;6.074;2023-01-19T01:53:18;33.43;;;15.03;;
17618;SDS011;8928;51.678;6.074;2023-01-19T01:56:06;33.60;;;15.03;;
17618;SDS011;8928;51.678;6.074;2023-01-19T01:58:57;30.30;;;14.23;;
17618;SDS011;8928;51.678;6.074;2023-01-19T02:01:44;32.70;;;14.67;;
17618;SDS011;8928;51.678;6.074;2023-01-19T02:04:51;31.47;;;14.07;;
17618;SDS011;8928;51.678;6.074;2023-01-19T02:07:42;35.77;;;15.17;;
17618;SDS011;8928;51.678;6.074;2023-01-19T02:10:50;30.07;;;14.70;;
17618;SDS011;8928;51.678;6.074;2023-01-19T02:13:55;31.80;;;14.60;;
17618;SDS011;8928;51.678;6.074;2023-01-19T02:16:42;29.13;;;14.03;;
17618;SDS011;8928;51.678;6.074;2023-01-19T02:19:31;33.00;;;14.80;;
17618;SDS011;8928;51.678;6.074;2023-01-19T02:22:23;35.57;;;14.83;;
17618;SDS011;8928;51.678;6.074;2023-01-19T02:25:21;28.53;;;14.60;;
17618;SDS011;8928;51.678;6.074;2023-01-19T02:28:09;35.97;;;14.20;;
17618;SDS011;8928;51.678;6.074;2023-01-19T02:30:57;31.30;;;14.03;;
17618;SDS011;8928;51.678;6.074;2023-01-19T02:33:44;34.60;;;14.40;;
17618;SDS011;8928;51.678;6.074;2023-01-19T02:36:33;29.73;;;13.77;;
17618;SDS011;8928;51.678;6.074;2023-01-19T02:39:24;29.77;;;13.80;;
17618;SDS011;8928;51.678;6.074;2023-01-19T02:42:16;32.27;;;14.03;;
17618;SDS011;8928;51.678;6.074;2023-01-19T02:45:07;30.87;;;14.10;;
17618;SDS011;8928;51.678;6.074;2023-01-19T02:47:57;33.97;;;13.87;;
17618;SDS011;8928;51.678;6.074;2023-01-19T02:50:44;35.27;;;14.50;;
17618;SDS011;8928;51.678;6.074;2023-01-19T02:53:39;33.90;;;14.40;;
17618;SDS011;8928;51.678;6.074;2023-01-19T02:56:51;29.53;;;14.03;;
17618;SDS011;8928;51.678;6.074;2023-01-19T02:59:52;33.67;;;14.33;;
17618;SDS011;8928;51.678;6.074;2023-01-19T03:02:56;29.47;;;14.03;;
17618;SDS011;8928;51.678;6.074;2023-01-19T03:06:00;29.20;;;13.50;;
17618;SDS011;8928;51.678;6.074;2023-01-19T03:08:52;28.20;;;13.50;;
17618;SDS011;8928;51.678;6.074;2023-01-19T03:11:45;33.50;;;13.90;;
17618;SDS011;8928;51.678;6.074;2023-01-19T03:14:41;29.20;;;13.63;;
17618;SDS011;8928;51.678;6.074;2023-01-19T03:17:34;33.27;;;14.60;;
17618;SDS011;8928;51.678;6.074;2023-01-19T03:20:22;29.47;;;14.73;;
17618;SDS011;8928;51.678;6.074;2023-01-19T03:23:13;30.83;;;15.33;;
17618;SDS011;8928;51.678;6.074;2023-01-19T03:26:02;33.03;;;15.70;;
17618;SDS011;8928;51.678;6.074;2023-01-19T03:28:51;32.47;;;15.93;;
17618;SDS011;8928;51.678;6.074;2023-01-19T03:31:42;33.47;;;15.80;;
17618;SDS011;8928;51.678;6.074;2023-01-19T03:34:34;31.83;;;15.70;;
17618;SDS011;8928;51.678;6.074;2023-01-19T03:37:23;31.83;;;15.53;;
17618;SDS011;8928;51.678;6.074;2023-01-19T03:40:13;33.67;;;15.87;;
17618;SDS011;8928;51.678;6.074;2023-01-19T03:43:00;34.57;;;16.43;;
17618;SDS011;8928;51.678;6.074;2023-01-19T03:45:49;35.03;;;17.03;;
17618;SDS011;8928;51.678;6.074;2023-01-19T03:48:36;35.80;;;17.30;;
17618;SDS011;8928;51.678;6.074;2023-01-19T03:51:26;30.60;;;15.80;;
17618;SDS011;8928;51.678;6.074;2023-01-19T03:54:13;32.33;;;16.03;;
17618;SDS011;8928;51.678;6.074;2023-01-19T03:57:00;32.67;;;15.87;;
17618;SDS011;8928;51.678;6.074;2023-01-19T03:59:47;28.20;;;14.27;;
17618;SDS011;8928;51.678;6.074;2023-01-19T04:02:34;29.73;;;14.30;;
17618;SDS011;8928;51.678;6.074;2023-01-19T04:05:21;26.43;;;14.40;;
17618;SDS011;8928;51.678;6.074;2023-01-19T04:08:10;24.37;;;13.43;;
17618;SDS011;8928;51.678;6.074;2023-01-19T04:10:58;25.60;;;13.73;;
17618;SDS011;8928;51.678;6.074;2023-01-19T04:13:45;28.33;;;13.33;;
17618;SDS011;8928;51.678;6.074;2023-01-19T04:16:32;23.30;;;13.17;;
17618;SDS011;8928;51.678;6.074;2023-01-19T04:19:19;23.87;;;13.43;;
17618;SDS011;8928;51.678;6.074;2023-01-19T04:22:06;22.17;;;12.30;;
17618;SDS011;8928;51.678;6.074;2023-01-19T04:24:54;21.53;;;12.43;;
17618;SDS011;8928;51.678;6.074;2023-01-19T04:27:41;22.23;;;12.90;;
17618;SDS011;8928;51.678;6.074;2023-01-19T04:30:28;22.07;;;12.43;;
17618;SDS011;8928;51.678;6.074;2023-01-19T04:33:15;22.40;;;13.03;;
17618;SDS011;8928;51.678;6.074;2023-01-19T04:36:03;22.70;;;13.00;;
17618;SDS011;8928;51.678;6.074;2023-01-19T04:38:50;23.50;;;13.13;;
17618;SDS011;8928;51.678;6.074;2023-01-19T04:41:38;24.17;;;13.63;;
17618;SDS011;8928;51.678;6.074;2023-01-19T04:44:26;23.87;;;13.53;;
17618;SDS011;8928;51.678;6.074;2023-01-19T04:47:13;26.33;;;14.43;;
17618;SDS011;8928;51.678;6.074;2023-01-19T04:50:00;25.33;;;13.77;;
17618;SDS011;8928;51.678;6.074;2023-01-19T04:52:47;23.90;;;14.13;;
17618;SDS011;8928;51.678;6.074;2023-01-19T04:55:35;27.03;;;13.77;;
17618;SDS011;8928;51.678;6.074;2023-01-19T04:58:23;25.40;;;14.20;;
17618;SDS011;8928;51.678;6.074;2023-01-19T05:01:10;23.53;;;13.70;;
17618;SDS011;8928;51.678;6.074;2023-01-19T05:03:58;23.67;;;12.73;;
17618;SDS011;8928;51.678;6.074;2023-01-19T05:06:45;23.77;;;12.43;;
17618;SDS011;8928;51.678;6.074;2023-01-19T05:09:32;21.17;;;11.97;;
17618;SDS011;8928;51.678;6.074;2023-01-19T05:12:19;22.47;;;11.93;;
17618;SDS011;8928;51.678;6.074;2023-01-19T05:15:08;19.70;;;11.33;;
17618;SDS011;8928;51.678;6.074;2023-01-19T05:17:56;19.50;;;10.90;;
17618;SDS011;8928;51.678;6.074;2023-01-19T05:20:43;19.60;;;10.57;;
17618;SDS011;8928;51.678;6.074;2023-01-19T05:23:30;17.90;;;9.83;;
17618;SDS011;8928;51.678;6.074;2023-01-19T05:26:17;16.60;;;9.30;;
17618;SDS011;8928;51.678;6.074;2023-01-19T05:29:04;16.20;;;8.80;;
17618;SDS011;8928;51.678;6.074;2023-01-19T05:31:53;15.80;;;8.50;;
17618;SDS011;8928;51.678;6.074;2023-01-19T05:34:40;14.30;;;8.27;;
17618;SDS011;8928;51.678;6.074;2023-01-19T05:37:27;15.27;;;8.63;;
17618;SDS011;8928;51.678;6.074;2023-01-19T05:40:14;15.53;;;8.30;;
17618;SDS011;8928;51.678;6.074;2023-01-19T05:43:01;14.30;;;7.83;;
17618;SDS011;8928;51.678;6.074;2023-01-19T05:45:49;12.80;;;7.60;;
17618;SDS011;8928;51.678;6.074;2023-01-19T05:48:37;13.43;;;7.80;;
17618;SDS011;8928;51.678;6.074;2023-01-19T05:51:24;14.47;;;7.20;;
17618;SDS011;8928;51.678;6.074;2023-01-19T05:54:12;15.13;;;7.87;;
17618;SDS011;8928;51.678;6.074;2023-01-19T05:57:00;13.13;;;7.17;;
17618;SDS011;8928;51.678;6.074;2023-01-19T05:59:48;12.10;;;6.93;;
17618;SDS011;8928;51.678;6.074;2023-01-19T06:02:35;14.70;;;6.80;;
17618;SDS011;8928;51.678;6.074;2023-01-19T06:05:24;13.53;;;6.97;;
17618;SDS011;8928;51.678;6.074;2023-01-19T06:08:11;14.33;;;7.23;;
17618;SDS011;8928;51.678;6.074;2023-01-19T06:10:58;12.27;;;6.90;;
17618;SDS011;8928;51.678;6.074;2023-01-19T06:13:45;14.33;;;7.20;;
17618;SDS011;8928;51.678;6.074;2023-01-19T06:16:32;12.00;;;6.67;;
17618;SDS011;8928;51.678;6.074;2023-01-19T06:19:19;13.10;;;6.90;;
17618;SDS011;8928;51.678;6.074;2023-01-19T06:22:08;13.87;;;6.80;;
17618;SDS011;8928;51.678;6.074;2023-01-19T06:24:55;11.93;;;6.67;;
17618;SDS011;8928;51.678;6.074;2023-01-19T06:27:42;10.67;;;6.30;;
17618;SDS011;8928;51.678;6.074;2023-01-19T06:30:30;14.10;;;6.77;;
17618;SDS011;8928;51.678;6.074;2023-01-19T06:33:17;12.90;;;6.07;;
17618;SDS011;8928;51.678;6.074;2023-01-19T06:36:05;12.73;;;6.07;;
17618;SDS011;8928;51.678;6.074;2023-01-19T06:38:53;13.03;;;5.60;;
17618;SDS011;8928;51.678;6.074;2023-01-19T06:41:40;14.20;;;5.50;;
17618;SDS011;8928;51.678;6.074;2023-01-19T06:44:27;13.50;;;5.90;;
17618;SDS011;8928;51.678;6.074;2023-01-19T06:47:15;18.60;;;6.30;;
17618;SDS011;8928;51.678;6.074;2023-01-19T06:50:02;16.53;;;7.43;;
17618;SDS011;8928;51.678;6.074;2023-01-19T06:52:49;20.70;;;8.00;;
17618;SDS011;8928;51.678;6.074;2023-01-19T06:55:38;18.60;;;8.27;;
17618;SDS011;8928;51.678;6.074;2023-01-19T06:58:25;23.00;;;8.97;;
17618;SDS011;8928;51.678;6.074;2023-01-19T07:01:12;25.37;;;9.00;;
17618;SDS011;8928;51.678;6.074;2023-01-19T07:03:59;23.17;;;9.67;;
17618;SDS011;8928;51.678;6.074;2023-01-19T07:06:46;24.10;;;10.07;;
17618;SDS011;8928;51.678;6.074;2023-01-19T07:09:33;22.67;;;10.37;;
17618;SDS011;8928;51.678;6.074;2023-01-19T07:12:21;24.23;;;11.00;;
17618;SDS011;8928;51.678;6.074;2023-01-19T07:15:09;27.23;;;11.23;;
17618;SDS011;8928;51.678;6.074;2023-01-19T07:17:56;28.23;;;11.57;;
17618;SDS011;8928;51.678;6.074;2023-01-19T07:20:44;26.93;;;11.27;;
17618;SDS011;8928;51.678;6.074;2023-01-19T07:23:33;27.33;;;12.10;;
17618;SDS011;8928;51.678;6.074;2023-01-19T07:26:22;27.80;;;12.70;;
17618;SDS011;8928;51.678;6.074;2023-01-19T07:29:11;34.30;;;13.00;;
17618;SDS011;8928;51.678;6.074;2023-01-19T07:31:58;36.93;;;14.80;;
17618;SDS011;8928;51.678;6.074;2023-01-19T07:34:45;30.27;;;14.40;;
17618;SDS011;8928;51.678;6.074;2023-01-19T07:37:32;34.20;;;15.87;;
17618;SDS011;8928;51.678;6.074;2023-01-19T07:40:19;37.80;;;17.00;;
17618;SDS011;8928;51.678;6.074;2023-01-19T07:43:06;32.00;;;16.03;;
17618;SDS011;8928;51.678;6.074;2023-01-19T07:45:55;38.00;;;17.83;;
17618;SDS011;8928;51.678;6.074;2023-01-19T07:48:42;43.17;;;18.33;;
17618;SDS011;8928;51.678;6.074;2023-01-19T07:51:31;38.40;;;18.43;;
17618;SDS011;8928;51.678;6.074;2023-01-19T07:54:18;40.83;;;19.37;;
17618;SDS011;8928;51.678;6.074;2023-01-19T07:57:05;39.43;;;20.00;;
17618;SDS011;8928;51.678;6.074;2023-01-19T07:59:53;44.40;;;21.20;;
17618;SDS011;8928;51.678;6.074;2023-01-19T08:02:41;42.83;;;21.33;;
17618;SDS011;8928;51.678;6.074;2023-01-19T08:05:28;44.70;;;22.07;;
17618;SDS011;8928;51.678;6.074;2023-01-19T08:08:16;47.77;;;22.03;;
17618;SDS011;8928;51.678;6.074;2023-01-19T08:11:03;44.97;;;22.10;;
17618;SDS011;8928;51.678;6.074;2023-01-19T08:13:50;44.87;;;22.83;;
17618;SDS011;8928;51.678;6.074;2023-01-19T08:16:37;50.20;;;24.60;;
17618;SDS011;8928;51.678;6.074;2023-01-19T08:19:25;55.73;;;24.80;;
17618;SDS011;8928;51.678;6.074;2023-01-19T08:22:12;49.93;;;24.50;;
17618;SDS011;8928;51.678;6.074;2023-01-19T08:24:59;49.40;;;24.80;;
17618;SDS011;8928;51.678;6.074;2023-01-19T08:27:46;53.97;;;25.80;;
17618;SDS011;8928;51.678;6.074;2023-01-19T08:30:33;54.77;;;26.60;;
17618;SDS011;8928;51.678;6.074;2023-01-19T08:33:22;51.33;;;26.33;;
17618;SDS011;8928;51.678;6.074;2023-01-19T08:36:10;57.80;;;26.80;;
17618;SDS011;8928;51.678;6.074;2023-01-19T08:38:58;58.07;;;26.20;;
17618;SDS011;8928;51.678;6.074;2023-01-19T08:41:45;52.90;;;26.23;;
17618;SDS011;8928;51.678;6.074;2023-01-19T08:44:32;61.53;;;26.30;;
17618;SDS011;8928;51.678;6.074;2023-01-19T08:47:19;57.83;;;26.60;;
17618;SDS011;8928;51.678;6.074;2023-01-19T08:50:06;63.27;;;26.83;;
17618;SDS011;8928;51.678;6.074;2023-01-19T08:52:56;58.40;;;26.90;;
17618;SDS011;8928;51.678;6.074;2023-01-19T08:55:44;64.80;;;27.40;;
17618;SDS011;8928;51.678;6.074;2023-01-19T08:58:30;65.23;;;27.70;;
17618;SDS011;8928;51.678;6.074;2023-01-19T09:01:18;64.37;;;28.97;;
17618;SDS011;8928;51.678;6.074;2023-01-19T09:04:06;65.87;;;28.17;;
17618;SDS011;8928;51.678;6.074;2023-01-19T09:06:53;64.03;;;28.70;;
17618;SDS011;8928;51.678;6.074;2023-01-19T09:09:41;72.10;;;28.50;;
17618;SDS011;8928;51.678;6.074;2023-01-19T09:12:28;63.67;;;28.07;;
17618;SDS011;8928;51.678;6.074;2023-01-19T09:15:15;58.27;;;27.17;;
17618;SDS011;8928;51.678;6.074;2023-01-19T09:18:03;66.23;;;28.77;;
17618;SDS011;8928;51.678;6.074;2023-01-19T09:20:51;65.47;;;27.47;;
17618;SDS011;8928;51.678;6.074;2023-01-19T09:23:39;65.07;;;27.67;;
17618;SDS011;8928;51.678;6.074;2023-01-19T09:26:28;67.20;;;28.00;;
17618;SDS011;8928;51.678;6.074;2023-01-19T09:29:16;63.90;;;27.43;;
17618;SDS011;8928;51.678;6.074;2023-01-19T09:32:03;59.40;;;27.73;;
17618;SDS011;8928;51.678;6.074;2023-01-19T09:34:50;56.10;;;26.73;;
17618;SDS011;8928;51.678;6.074;2023-01-19T09:37:38;62.70;;;25.10;;
17618;SDS011;8928;51.678;6.074;2023-01-19T09:40:25;55.73;;;25.57;;
17618;SDS011;8928;51.678;6.074;2023-01-19T09:43:16;58.47;;;24.83;;
17618;SDS011;8928;51.678;6.074;2023-01-19T09:46:09;59.97;;;25.63;;
17618;SDS011;8928;51.678;6.074;2023-01-19T09:49:00;56.40;;;24.03;;
17618;SDS011;8928;51.678;6.074;2023-01-19T09:51:50;54.30;;;23.00;;
17618;SDS011;8928;51.678;6.074;2023-01-19T09:54:39;54.57;;;21.73;;
17618;SDS011;8928;51.678;6.074;2023-01-19T09:57:31;46.07;;;20.40;;
17618;SDS011;8928;51.678;6.074;2023-01-19T10:00:21;46.10;;;19.97;;
17618;SDS011;8928;51.678;6.074;2023-01-19T10:03:11;49.20;;;19.33;;
17618;SDS011;8928;51.678;6.074;2023-01-19T10:06:01;40.10;;;18.30;;
17618;SDS011;8928;51.678;6.074;2023-01-19T10:08:54;44.47;;;19.40;;
17618;SDS011;8928;51.678;6.074;2023-01-19T10:11:50;42.67;;;19.07;;
17618;SDS011;8928;51.678;6.074;2023-01-19T10:14:44;46.07;;;20.07;;
17618;SDS011;8928;51.678;6.074;2023-01-19T10:17:43;50.80;;;22.27;;
17618;SDS011;8928;51.678;6.074;2023-01-19T10:20:42;53.23;;;22.47;;
17618;SDS011;8928;51.678;6.074;2023-01-19T10:23:36;57.63;;;23.20;;
17618;SDS011;8928;51.678;6.074;2023-01-19T10:26:28;64.47;;;24.97;;
17618;SDS011;8928;51.678;6.074;2023-01-19T10:29:21;62.30;;;23.87;;
17618;SDS011;8928;51.678;6.074;2023-01-19T10:32:11;68.80;;;24.40;;
17618;SDS011;8928;51.678;6.074;2023-01-19T10:35:06;59.67;;;23.87;;
17618;SDS011;8928;51.678;6.074;2023-01-19T10:38:05;63.77;;;23.93;;
17618;SDS011;8928;51.678;6.074;2023-01-19T10:40:59;61.20;;;23.63;;
17618;SDS011;8928;51.678;6.074;2023-01-19T10:43:57;65.13;;;24.37;;
17618;SDS011;8928;51.678;6.074;2023-01-19T10:46:45;61.50;;;22.77;;
17618;SDS011;8928;51.678;6.074;2023-01-19T10:49:35;59.83;;;22.43;;
17618;SDS011;8928;51.678;6.074;2023-01-19T10:52:27;55.73;;;23.07;;
17618;SDS011;8928;51.678;6.074;2023-01-19T10:55:24;55.40;;;22.17;;
17618;SDS011;8928;51.678;6.074;2023-01-19T10:58:25;57.83;;;21.67;;
17618;SDS011;8928;51.678;6.074;2023-01-19T11:01:15;55.13;;;22.30;;
17618;SDS011;8928;51.678;6.074;2023-01-19T11:07:17;67.87;;;23.67;;
17618;SDS011;8928;51.678;6.074;2023-01-19T11:10:18;57.73;;;22.73;;
17618;SDS011;8928;51.678;6.074;2023-01-19T11:13:08;66.87;;;23.50;;
17618;SDS011;8928;51.678;6.074;2023-01-19T11:16:03;57.60;;;23.43;;
17618;SDS011;8928;51.678;6.074;2023-01-19T11:18:52;58.43;;;23.10;;
17618;SDS011;8928;51.678;6.074;2023-01-19T11:21:40;57.93;;;22.80;;
17618;SDS011;8928;51.678;6.074;2023-01-19T11:24:28;58.00;;;23.63;;
17618;SDS011;8928;51.678;6.074;2023-01-19T11:27:17;57.03;;;22.87;;
17618;SDS011;8928;51.678;6.074;2023-01-19T11:30:06;59.20;;;22.37;;
17618;SDS011;8928;51.678;6.074;2023-01-19T11:33:03;56.43;;;21.60;;
17618;SDS011;8928;51.678;6.074;2023-01-19T11:35:54;49.67;;;21.90;;
17618;SDS011;8928;51.678;6.074;2023-01-19T11:38:49;53.53;;;22.17;;
17618;SDS011;8928;51.678;6.074;2023-01-19T11:41:36;54.50;;;20.30;;
17618;SDS011;8928;51.678;6.074;2023-01-19T11:44:27;54.93;;;21.23;;
17618;SDS011;8928;51.678;6.074;2023-01-19T11:47:18;45.47;;;20.70;;
17618;SDS011;8928;51.678;6.074;2023-01-19T11:50:13;42.37;;;19.47;;
17618;SDS011;8928;51.678;6.074;2023-01-19T11:53:09;42.90;;;19.90;;
17618;SDS011;8928;51.678;6.074;2023-01-19T11:56:05;46.07;;;19.50;;
17618;SDS011;8928;51.678;6.074;2023-01-19T11:59:07;40.47;;;19.17;;
17618;SDS011;8928;51.678;6.074;2023-01-19T12:01:59;48.00;;;19.93;;
17618;SDS011;8928;51.678;6.074;2023-01-19T12:04:50;44.83;;;18.70;;
17618;SDS011;8928;51.678;6.074;2023-01-19T12:07:41;41.43;;;18.87;;
17618;SDS011;8928;51.678;6.074;2023-01-19T12:10:31;38.57;;;17.73;;
17618;SDS011;8928;51.678;6.074;2023-01-19T12:13:22;46.27;;;17.00;;
17618;SDS011;8928;51.678;6.074;2023-01-19T12:16:12;42.23;;;16.37;;
17618;SDS011;8928;51.678;6.074;2023-01-19T12:19:12;36.23;;;15.90;;
17618;SDS011;8928;51.678;6.074;2023-01-19T12:22:02;45.37;;;15.87;;
17618;SDS011;8928;51.678;6.074;2023-01-19T12:24:51;35.67;;;14.70;;
17618;SDS011;8928;51.678;6.074;2023-01-19T12:27:42;32.67;;;13.50;;
17618;SDS011;8928;51.678;6.074;2023-01-19T12:30:31;33.87;;;14.00;;
17618;SDS011;8928;51.678;6.074;2023-01-19T12:33:20;31.80;;;13.37;;
17618;SDS011;8928;51.678;6.074;2023-01-19T12:36:10;33.00;;;13.10;;
17618;SDS011;8928;51.678;6.074;2023-01-19T12:39:19;32.50;;;13.10;;
17618;SDS011;8928;51.678;6.074;2023-01-19T12:42:10;31.17;;;13.70;;
17618;SDS011;8928;51.678;6.074;2023-01-19T12:45:11;32.03;;;12.67;;
17618;SDS011;8928;51.678;6.074;2023-01-19T12:48:00;28.07;;;12.17;;
17618;SDS011;8928;51.678;6.074;2023-01-19T12:50:49;31.80;;;12.50;;
17618;SDS011;8928;51.678;6.074;2023-01-19T12:53:36;30.17;;;12.77;;
17618;SDS011;8928;51.678;6.074;2023-01-19T12:56:27;30.83;;;12.13;;
17618;SDS011;8928;51.678;6.074;2023-01-19T12:59:21;29.50;;;12.17;;
17618;SDS011;8928;51.678;6.074;2023-01-19T13:02:29;28.73;;;12.07;;
17618;SDS011;8928;51.678;6.074;2023-01-19T13:05:46;31.67;;;12.33;;
17618;SDS011;8928;51.678;6.074;2023-01-19T13:18:15;24.93;;;11.23;;
17618;SDS011;8928;51.678;6.074;2023-01-19T13:21:04;25.53;;;11.20;;
17618;SDS011;8928;51.678;6.074;2023-01-19T13:23:54;28.93;;;11.73;;
17618;SDS011;8928;51.678;6.074;2023-01-19T13:26:51;27.13;;;10.77;;
17618;SDS011;8928;51.678;6.074;2023-01-19T13:29:43;26.97;;;11.07;;
17618;SDS011;8928;51.678;6.074;2023-01-19T13:32:30;27.10;;;10.37;;
17618;SDS011;8928;51.678;6.074;2023-01-19T13:35:18;24.43;;;10.70;;
17618;SDS011;8928;51.678;6.074;2023-01-19T13:38:06;26.13;;;10.10;;
17618;SDS011;8928;51.678;6.074;2023-01-19T13:40:58;23.07;;;9.93;;
17618;SDS011;8928;51.678;6.074;2023-01-19T13:43:48;22.23;;;9.60;;
17618;SDS011;8928;51.678;6.074;2023-01-19T13:46:43;22.43;;;9.43;;
17618;SDS011;8928;51.678;6.074;2023-01-19T13:49:32;23.40;;;9.57;;
17618;SDS011;8928;51.678;6.074;2023-01-19T13:52:23;25.23;;;9.70;;
17618;SDS011;8928;51.678;6.074;2023-01-19T13:55:12;22.67;;;9.50;;
17618;SDS011;8928;51.678;6.074;2023-01-19T13:58:00;29.13;;;9.67;;
17618;SDS011;8928;51.678;6.074;2023-01-19T14:00:47;23.90;;;9.83;;
17618;SDS011;8928;51.678;6.074;2023-01-19T14:03:37;21.83;;;9.73;;
17618;SDS011;8928;51.678;6.074;2023-01-19T14:06:30;24.27;;;9.57;;
17618;SDS011;8928;51.678;6.074;2023-01-19T14:09:20;26.23;;;10.20;;
17618;SDS011;8928;51.678;6.074;2023-01-19T14:12:11;23.03;;;9.63;;
17618;SDS011;8928;51.678;6.074;2023-01-19T14:15:00;22.50;;;8.90;;
17618;SDS011;8928;51.678;6.074;2023-01-19T14:21:09;23.63;;;8.87;;
17618;SDS011;8928;51.678;6.074;2023-01-19T14:24:04;20.23;;;9.40;;
17618;SDS011;8928;51.678;6.074;2023-01-19T14:26:53;23.77;;;8.93;;
17618;SDS011;8928;51.678;6.074;2023-01-19T14:29:54;23.20;;;9.03;;
17618;SDS011;8928;51.678;6.074;2023-01-19T14:33:10;24.90;;;9.37;;
17618;SDS011;8928;51.678;6.074;2023-01-19T14:39:24;27.10;;;11.33;;
17618;SDS011;8928;51.678;6.074;2023-01-19T14:42:13;30.20;;;11.20;;
17618;SDS011;8928;51.678;6.074;2023-01-19T14:45:05;25.40;;;12.10;;
17618;SDS011;8928;51.678;6.074;2023-01-19T14:48:01;32.23;;;11.87;;
17618;SDS011;8928;51.678;6.074;2023-01-19T14:50:51;28.37;;;12.10;;
17618;SDS011;8928;51.678;6.074;2023-01-19T14:53:48;30.77;;;11.60;;
17618;SDS011;8928;51.678;6.074;2023-01-19T14:56:37;23.27;;;11.50;;
17618;SDS011;8928;51.678;6.074;2023-01-19T14:59:24;29.27;;;12.13;;
17618;SDS011;8928;51.678;6.074;2023-01-19T15:02:11;24.53;;;11.77;;
17618;SDS011;8928;51.678;6.074;2023-01-19T15:04:58;29.47;;;12.17;;
17618;SDS011;8928;51.678;6.074;2023-01-19T15:07:46;33.93;;;12.20;;
17618;SDS011;8928;51.678;6.074;2023-01-19T15:10:34;29.20;;;12.70;;
17618;SDS011;8928;51.678;6.074;2023-01-19T15:13:22;29.10;;;12.90;;
17618;SDS011;8928;51.678;6.074;2023-01-19T15:16:10;27.67;;;13.07;;
17618;SDS011;8928;51.678;6.074;2023-01-19T15:18:58;32.73;;;14.27;;
17618;SDS011;8928;51.678;6.074;2023-01-19T15:21:45;35.90;;;14.97;;
17618;SDS011;8928;51.678;6.074;2023-01-19T15:24:32;34.63;;;14.97;;
17618;SDS011;8928;51.678;6.074;2023-01-19T15:27:21;33.83;;;14.23;;
17618;SDS011;8928;51.678;6.074;2023-01-19T15:30:14;37.23;;;15.37;;
17618;SDS011;8928;51.678;6.074;2023-01-19T15:33:03;35.40;;;15.30;;
17618;SDS011;8928;51.678;6.074;2023-01-19T15:35:50;34.30;;;15.47;;
17618;SDS011;8928;51.678;6.074;2023-01-19T15:38:37;38.40;;;15.33;;
17618;SDS011;8928;51.678;6.074;2023-01-19T15:41:25;35.97;;;16.17;;
17618;SDS011;8928;51.678;6.074;2023-01-19T15:44:15;37.80;;;15.67;;
17618;SDS011;8928;51.678;6.074;2023-01-19T15:47:02;38.57;;;15.33;;
17618;SDS011;8928;51.678;6.074;2023-01-19T15:49:49;38.03;;;15.53;;
17618;SDS011;8928;51.678;6.074;2023-01-19T15:52:36;38.13;;;15.97;;
17618;SDS011;8928;51.678;6.074;2023-01-19T15:55:23;43.17;;;15.83;;
17618;SDS011;8928;51.678;6.074;2023-01-19T15:58:10;47.33;;;16.37;;
17618;SDS011;8928;51.678;6.074;2023-01-19T16:00:59;42.67;;;16.87;;
17618;SDS011;8928;51.678;6.074;2023-01-19T16:03:46;44.67;;;16.33;;
17618;SDS011;8928;51.678;6.074;2023-01-19T16:06:34;39.60;;;16.40;;
17618;SDS011;8928;51.678;6.074;2023-01-19T16:09:21;42.73;;;16.60;;
17618;SDS011;8928;51.678;6.074;2023-01-19T16:12:08;50.73;;;17.10;;
17618;SDS011;8928;51.678;6.074;2023-01-19T16:14:55;39.97;;;16.80;;
17618;SDS011;8928;51.678;6.074;2023-01-19T16:17:43;40.57;;;16.63;;
17618;SDS011;8928;51.678;6.074;2023-01-19T16:20:31;42.40;;;16.93;;
17618;SDS011;8928;51.678;6.074;2023-01-19T16:23:18;46.60;;;17.27;;
17618;SDS011;8928;51.678;6.074;2023-01-19T16:26:05;44.30;;;17.10;;
17618;SDS011;8928;51.678;6.074;2023-01-19T16:29:07;40.97;;;16.87;;
17618;SDS011;8928;51.678;6.074;2023-01-19T16:31:55;50.30;;;17.70;;
17618;SDS011;8928;51.678;6.074;2023-01-19T16:34:43;46.40;;;18.53;;
17618;SDS011;8928;51.678;6.074;2023-01-19T16:37:30;46.00;;;18.60;;
17618;SDS011;8928;51.678;6.074;2023-01-19T16:40:17;44.57;;;17.50;;
17618;SDS011;8928;51.678;6.074;2023-01-19T16:43:04;42.63;;;17.87;;
17618;SDS011;8928;51.678;6.074;2023-01-19T16:45:54;45.53;;;17.47;;
17618;SDS011;8928;51.678;6.074;2023-01-19T16:48:43;51.73;;;18.00;;
17618;SDS011;8928;51.678;6.074;2023-01-19T16:51:31;42.07;;;18.13;;
17618;SDS011;8928;51.678;6.074;2023-01-19T16:54:19;51.77;;;17.57;;
17618;SDS011;8928;51.678;6.074;2023-01-19T16:57:07;42.13;;;17.77;;
17618;SDS011;8928;51.678;6.074;2023-01-19T16:59:55;50.07;;;19.03;;
17618;SDS011;8928;51.678;6.074;2023-01-19T17:02:42;46.83;;;18.67;;
17618;SDS011;8928;51.678;6.074;2023-01-19T17:05:29;50.20;;;18.50;;
17618;SDS011;8928;51.678;6.074;2023-01-19T17:08:18;43.73;;;17.90;;